FW2847 Weather Reports


Display with metric or nautical units.
time (UTC)temp
F
wind
direction
speed
MPH
gust
MPH
rain 1hr
in
rain 24hr
in
rain mn
in
humidity
%
barometer
mb
20210919043622 71 270 0.0 2.0 0.00 0.00 0.00 29 1020.4
20210919043121 71 253 0.0 2.0 0.00 0.00 0.00 29 1020.4
20210919042626 71 273 0.0 2.0 0.00 0.00 0.00 29 1020.4
20210919042121 72 262 0.0 0.0 0.00 0.00 0.00 29 1020.4
20210919041622 72 269 0.0 0.0 0.00 0.00 0.00 29 1020.5
20210919041123 71 269 0.0 1.0 0.00 0.00 0.00 29 1020.5
20210919040621 71 269 0.0 1.0 0.00 0.00 0.00 29 1020.5
20210919040123 72 266 0.0 1.0 0.00 0.00 0.00 29 1020.6
20210919035622 71 267 0.0 1.0 0.00 0.00 0.00 29 1020.5
20210919035119 72 259 0.0 1.0 0.00 0.00 0.00 28 1020.5
20210919034621 73 239 0.0 1.0 0.00 0.00 0.00 28 1020.4
20210919034120 73 96 0.0 0.0 0.00 0.00 0.00 27 1020.4
20210919033619 74 130 0.0 1.0 0.00 0.00 0.00 27 1020.5
20210919033120 74 124 1.0 8.0 0.00 0.00 0.00 26 1020.4
20210919032620 74 148 1.0 8.0 0.00 0.00 0.00 26 1020.5
20210919032120 74 110 0.0 3.0 0.00 0.00 0.00 27 1020.5
20210919031619 74 110 0.0 1.0 0.00 0.00 0.00 27 1020.5
20210919031121 74 236 0.0 3.0 0.00 0.00 0.00 26 1020.6
20210919030619 75 271 2.0 6.0 0.00 0.00 0.00 25 1020.4
20210919030118 75 269 2.0 6.0 0.00 0.00 0.00 25 1020.2
20210919025618 75 271 3.0 7.0 0.00 0.00 0.00 25 1020.4
20210919025117 76 276 4.0 9.0 0.00 0.00 0.00 25 1020.2
20210919024617 76 269 5.0 13.0 0.00 0.00 0.00 25 1020.2
20210919024118 76 285 6.0 13.0 0.00 0.00 0.00 25 1020.1
20210919023617 76 263 7.0 14.0 0.00 0.00 0.00 25 1020.1
20210919023119 76 278 7.0 14.0 0.00 0.00 0.00 25 1020.2
20210919022618 76 277 4.0 12.0 0.00 0.00 0.00 25 1020.1
20210919022118 75 284 3.0 8.0 0.00 0.00 0.00 26 1020.1
20210919021617 75 265 3.0 7.0 0.00 0.00 0.00 26 1020.1
20210919021115 75 288 2.0 7.0 0.00 0.00 0.00 26 1020.1
20210919020617 74 284 1.0 4.0 0.00 0.00 0.00 27 1020.1
20210919020115 74 283 1.0 3.0 0.00 0.00 0.00 28 1020.1
20210919015616 74 300 1.0 3.0 0.00 0.00 0.00 27 1020.1
20210919015115 73 288 0.0 2.0 0.00 0.00 0.00 28 1020.2
20210919014616 73 287 1.0 2.0 0.00 0.00 0.00 28 1020.2
20210919014117 73 285 0.0 2.0 0.00 0.00 0.00 27 1020.2
20210919013615 73 301 0.0 3.0 0.00 0.00 0.00 28 1020.2
20210919013115 73 295 2.0 5.0 0.00 0.00 0.00 27 1020.1
20210919012615 74 300 3.0 8.0 0.00 0.00 0.00 26 1020.2
20210919012114 75 294 3.0 8.0 0.00 0.00 0.00 25 1020.2
20210919011614 76 278 3.0 7.0 0.00 0.00 0.00 25 1020.2
20210919011113 78 283 2.0 6.0 0.00 0.00 0.00 23 1020.1
20210919010614 79 283 2.0 7.0 0.00 0.00 0.00 23 1020.1
20210919010113 79 277 3.0 8.0 0.00 0.00 0.00 22 1020.1
20210919005614 79 279 3.0 8.0 0.00 0.00 0.00 22 1020.2
20210919005111 79 296 2.0 7.0 0.00 0.00 0.00 22 1020.4
20210919004610 80 278 4.0 15.0 0.00 0.00 0.00 22 1020.5
20210919004111 80 277 7.0 15.0 0.00 0.00 0.00 22 1020.5
20210919003610 80 277 6.0 14.0 0.00 0.00 0.00 22 1020.5
20210919003113 79 302 4.0 12.0 0.00 0.00 0.00 23 1020.5
20210919002612 79 306 2.0 6.0 0.00 0.00 0.00 20 1020.6
20210919002111 78 297 2.0 5.0 0.00 0.00 0.00 20 1020.6
20210919001610 79 295 2.0 4.0 0.00 0.00 0.00 20 1020.6
20210919001111 79 305 3.0 6.0 0.00 0.00 0.00 18 1020.4
20210919000611 80 331 3.0 7.0 0.00 0.00 0.00 18 1020.2
20210919000113 80 320 3.0 7.0 0.00 0.00 0.00 18 1020.2
20210918235611 80 311 2.0 7.0 0.00 0.00 0.00 18 1020.2
20210918235113 80 311 1.0 7.0 0.00 0.00 0.00 18 1020.2
20210918234612 80 34 0.0 6.0 0.00 0.00 0.00 18 1020.1
20210918234111 80 301 0.0 2.0 0.00 0.00 0.00 19 1019.9
20210918233612 81 274 0.0 3.0 0.00 0.00 0.00 19 1019.9
20210918233112 81 334 0.0 3.0 0.00 0.00 0.00 17 1019.9
20210918232612 81 301 0.0 2.0 0.00 0.00 0.00 17 1019.9
20210918232109 82 23 0.0 2.0 0.00 0.00 0.00 17 1019.9
20210918231609 82 295 0.0 3.0 0.00 0.00 0.00 17 1019.9
20210918231107 82 343 1.0 5.0 0.00 0.00 0.00 17 1020.0
20210918230604 83 297 3.0 6.0 0.00 0.00 0.00 16 1020.1
20210918230104 83 274 3.0 7.0 0.00 0.00 0.00 16 1020.2
20210918225605 83 290 3.0 8.0 0.00 0.00 0.00 17 1020.4
20210918225107 82 311 2.0 8.0 0.00 0.00 0.00 16 1020.4
20210918224605 82 298 2.0 7.0 0.00 0.00 0.00 16 1020.2
20210918224105 82 11 1.0 7.0 0.00 0.00 0.00 18 1020.1
20210918223605 82 282 1.0 6.0 0.00 0.00 0.00 17 1020.1
20210918223106 82 311 2.0 6.0 0.00 0.00 0.00 17 1020.4
20210918222606 83 5 2.0 5.0 0.00 0.00 0.00 17 1020.4
20210918222106 83 316 1.0 5.0 0.00 0.00 0.00 15 1020.4
20210918221606 84 68 1.0 9.0 0.00 0.00 0.00 15 1020.4
20210918221105 85 67 2.0 9.0 0.00 0.00 0.00 15 1020.5
20210918220603 83 310 2.0 6.0 0.00 0.00 0.00 16 1020.5
20210918220103 84 44 2.0 7.0 0.00 0.00 0.00 15 1020.5
20210918215602 85 44 3.0 9.0 0.00 0.00 0.00 15 1020.5
20210918215105 85 11 3.0 9.0 0.00 0.00 0.00 15 1020.6
20210918214604 84 43 2.0 7.0 0.00 0.00 0.00 15 1020.7
20210918214103 83 50 1.0 6.0 0.00 0.00 0.00 16 1020.8
20210918213603 83 31 1.0 5.0 0.00 0.00 0.00 17 1020.8
20210918213102 83 348 1.0 5.0 0.00 0.00 0.00 16 1021.0
20210918212602 84 320 1.0 5.0 0.00 0.00 0.00 16 1021.0
20210918212101 84 355 1.0 5.0 0.00 0.00 0.00 16 1021.2
20210918211600 84 285 0.0 4.0 0.00 0.00 0.00 17 1021.3
20210918211057 85 82 0.0 2.0 0.00 0.00 0.00 15 1021.3
20210918210557 85 40 2.0 7.0 0.00 0.00 0.00 15 1021.4
20210918210058 85 83 2.0 7.0 0.00 0.00 0.00 15 1021.6
20210918205556 85 80 2.0 7.0 0.00 0.00 0.00 16 1021.6
20210918205055 84 46 2.0 7.0 0.00 0.00 0.00 15 1021.7
20210918204556 84 44 2.0 7.0 0.00 0.00 0.00 15 1021.7
20210918204054 86 93 2.0 9.0 0.00 0.00 0.00 14 1021.8
20210918203554 85 56 2.0 9.0 0.00 0.00 0.00 15 1021.8
20210918203054 84 39 2.0 7.0 0.00 0.00 0.00 16 1022.0
20210918202556 84 77 2.0 7.0 0.00 0.00 0.00 16 1022.0
20210918202054 85 105 2.0 6.0 0.00 0.00 0.00 15 1022.2
20210918201554 85 60 2.0 7.0 0.00 0.00 0.00 14 1022.3
20210918201054 85 75 4.0 8.0 0.00 0.00 0.00 14 1022.3
20210918200555 85 63 3.0 8.0 0.00 0.00 0.00 13 1022.4
20210918200054 85 66 2.0 7.0 0.00 0.00 0.00 14 1022.4
20210918195555 85 115 3.0 8.0 0.00 0.00 0.00 13 1022.5
20210918195054 84 322 3.0 11.0 0.00 0.00 0.00 14 1022.6
20210918194554 85 67 1.0 11.0 0.00 0.00 0.00 15 1022.8
20210918194055 84 319 1.0 5.0 0.00 0.00 0.00 15 1023.0
20210918193556 84 69 2.0 10.0 0.00 0.00 0.00 15 1023.1
20210918193056 84 102 3.0 10.0 0.00 0.00 0.00 13 1023.2
20210918192556 84 218 2.0 6.0 0.00 0.00 0.00 14 1023.2
20210918192054 83 77 2.0 8.0 0.00 0.00 0.00 16 1023.4
20210918191556 83 86 2.0 11.0 0.00 0.00 0.00 16 1023.5
20210918191054 83 222 3.0 11.0 0.00 0.00 0.00 17 1023.5
20210918190555 84 52 3.0 9.0 0.00 0.00 0.00 15 1023.6
20210918190054 83 94 2.0 9.0 0.00 0.00 0.00 19 1023.7
20210918185555 83 110 3.0 8.0 0.00 0.00 0.00 19 1023.7
20210918185055 82 117 2.0 8.0 0.00 0.00 0.00 16 1023.8
20210918184554 82 87 1.0 6.0 0.00 0.00 0.00 21 1024.0
20210918184055 81 127 3.0 8.0 0.00 0.00 0.00 22 1024.2
20210918183556 81 93 4.0 8.0 0.00 0.00 0.00 18 1024.3
20210918183055 81 96 4.0 9.0 0.00 0.00 0.00 19 1024.4
20210918182555 81 107 4.0 9.0 0.00 0.00 0.00 18 1024.3
20210918182054 81 108 3.0 9.0 0.00 0.00 0.00 20 1024.4
20210918181554 81 75 3.0 9.0 0.00 0.00 0.00 20 1024.7
20210918181055 81 169 3.0 10.0 0.00 0.00 0.00 21 1024.7
20210918180553 81 69 3.0 10.0 0.00 0.00 0.00 18 1024.8
20210918180050 81 87 2.0 8.0 0.00 0.00 0.00 17 1024.9
20210918175550 81 110 2.0 4.0 0.00 0.00 0.00 19 1025.0
20210918175052 80 124 2.0 4.0 0.00 0.00 0.00 21 1025.2
20210918174551 80 104 2.0 5.0 0.00 0.00 0.00 22 1025.3
20210918174046 80 79 1.0 6.0 0.00 0.00 0.00 21 1025.4
20210918173546 80 83 1.0 6.0 0.00 0.00 0.00 23 1025.5
20210918173047 79 113 1.0 4.0 0.00 0.00 0.00 20 1025.5
20210918172547 79 109 1.0 4.0 0.00 0.00 0.00 22 1025.6
20210918172044 78 72 1.0 6.0 0.00 0.00 0.00 22 1025.8
20210918171546 78 36 2.0 6.0 0.00 0.00 0.00 22 1025.8
20210918171044 77 89 2.0 7.0 0.00 0.00 0.00 22 1025.8
20210918170543 77 72 2.0 7.0 0.00 0.00 0.00 24 1025.9
20210918170043 77 82 1.0 5.0 0.00 0.00 0.00 22 1025.9
20210918165542 78 93 0.0 4.0 0.00 0.00 0.00 25 1026.0
20210918165043 77 90 1.0 4.0 0.00 0.00 0.00 23 1026.0
20210918164542 76 252 1.0 5.0 0.00 0.00 0.00 24 1026.1
20210918164042 76 72 1.0 5.0 0.00 0.00 0.00 24 1026.2
20210918163541 76 73 2.0 7.0 0.00 0.00 0.00 26 1026.2
20210918163039 76 79 2.0 7.0 0.00 0.00 0.00 27 1026.2
20210918162538 76 73 2.0 5.0 0.00 0.00 0.00 27 1026.2
20210918162037 76 70 1.0 4.0 0.00 0.00 0.00 30 1026.2
20210918161536 76 76 1.0 6.0 0.00 0.00 0.00 29 1026.2
20210918161036 75 101 2.0 6.0 0.00 0.00 0.00 28 1026.2
20210918160536 75 98 1.0 4.0 0.00 0.00 0.00 28 1026.1
20210918160037 75 91 1.0 5.0 0.00 0.00 0.00 28 1026.2
20210918155536 75 51 2.0 6.0 0.00 0.00 0.00 27 1026.1
20210918155037 75 108 2.0 6.0 0.00 0.00 0.00 27 1026.0
20210918154535 75 64 2.0 6.0 0.00 0.00 0.00 24 1026.1
20210918154034 75 77 2.0 5.0 0.00 0.00 0.00 23 1026.0
20210918153535 75 96 2.0 4.0 0.00 0.00 0.00 24 1026.1
20210918153034 74 103 1.0 4.0 0.00 0.00 0.00 22 1026.1
20210918152532 74 88 1.0 4.0 0.00 0.00 0.00 28 1026.1
20210918152032 74 90 1.0 4.0 0.00 0.00 0.00 27 1026.2
20210918151533 74 80 0.0 3.0 0.00 0.00 0.00 29 1026.2
20210918151032 75 84 0.0 1.0 0.00 0.00 0.00 24 1026.2
20210918150532 74 258 0.0 0.0 0.00 0.00 0.00 25 1026.2
20210918150031 74 104 0.0 1.0 0.00 0.00 0.00 26 1026.2
20210918145531 74 104 0.0 1.0 0.00 0.00 0.00 25 1026.2
20210918145031 74 121 0.0 1.0 0.00 0.00 0.00 30 1026.1
20210918144530 74 127 0.0 0.0 0.00 0.00 0.00 29 1026.2
20210918144030 73 342 0.0 0.0 0.00 0.00 0.00 25 1026.2
20210918143532 71 13 0.0 1.0 0.00 0.00 0.00 28 1026.1
20210918143030 71 73 0.0 1.0 0.00 0.00 0.00 30 1026.2
20210918142532 71 301 0.0 3.0 0.00 0.00 0.00 30 1026.2
20210918142031 71 300 0.0 3.0 0.00 0.00 0.00 27 1026.2
20210918141531 71 349 2.0 8.0 0.00 0.00 0.00 28 1026.4
20210918141032 71 290 3.0 8.0 0.00 0.00 0.00 24 1026.5
20210918140529 71 288 4.0 8.0 0.00 0.00 0.00 22 1026.5
20210918140030 70 266 5.0 9.0 0.00 0.00 0.00 22 1026.4
20210918135531 70 283 5.0 9.0 0.00 0.00 0.00 21 1026.5
20210918135028 70 265 6.0 10.0 0.00 0.00 0.00 22 1026.5
20210918134528 69 297 6.0 10.0 0.00 0.00 0.00 21 1026.5
20210918134028 69 279 6.0 12.0 0.00 0.00 0.00 21 1026.4
20210918133529 69 288 6.0 12.0 0.00 0.00 0.00 21 1026.4
20210918133028 69 278 7.0 11.0 0.00 0.00 0.00 21 1026.5
20210918132527 69 265 8.0 12.0 0.00 0.00 0.00 20 1026.4
20210918132029 68 274 7.0 12.0 0.00 0.00 0.00 21 1026.4
20210918131528 67 267 5.0 10.0 0.00 0.00 0.00 22 1026.2
20210918131029 66 259 4.0 7.0 0.00 0.00 0.00 23 1026.2
20210918130529 66 262 4.0 7.0 0.00 0.00 0.00 23 1026.2
20210918130028 65 277 3.0 6.0 0.00 0.00 0.00 24 1026.2
20210918125528 64 265 2.0 5.0 0.00 0.00 0.00 25 1026.1
20210918125029 63 272 2.0 4.0 0.00 0.00 0.00 26 1026.1
20210918124532 63 269 2.0 6.0 0.00 0.00 0.00 26 1026.1
20210918124029 64 266 3.0 6.0 0.00 0.00 0.00 25 1026.1
20210918123529 64 271 3.0 7.0 0.00 0.00 0.00 25 1026.1
20210918123028 64 281 2.0 7.0 0.00 0.00 0.00 26 1026.1
20210918122528 63 287 2.0 5.0 0.00 0.00 0.00 25 1026.1
20210918122028 63 275 3.0 5.0 0.00 0.00 0.00 25 1026.0
20210918121528 63 274 2.0 6.0 0.00 0.00 0.00 25 1026.1
20210918121027 63 282 2.0 6.0 0.00 0.00 0.00 25 1026.1
20210918120528 63 273 2.0 5.0 0.00 0.00 0.00 26 1026.1
20210918120026 63 275 2.0 5.0 0.00 0.00 0.00 27 1026.1
20210918115527 62 261 2.0 5.0 0.00 0.00 0.00 28 1026.1
20210918115025 61 272 2.0 4.0 0.00 0.00 0.00 29 1026.0
20210918114528 60 279 1.0 4.0 0.00 0.00 0.00 30 1025.9
20210918114025 58 265 0.0 4.0 0.00 0.00 0.00 32 1026.0
20210918113525 58 254 0.0 2.0 0.00 0.00 0.00 37 1026.1
20210918113025 58 226 0.0 2.0 0.00 0.00 0.00 43 1026.0
20210918112521 56 264 0.0 2.0 0.00 0.00 0.00 42 1026.0
20210918112023 54 240 0.0 0.0 0.00 0.00 0.00 60 1026.1
20210918111528 53 245 0.0 0.0 0.00 0.00 0.00 65 1026.1
20210918111021 53 245 0.0 0.0 0.00 0.00 0.00 66 1026.2
20210918110524 52 245 0.0 0.0 0.00 0.00 0.00 68 1026.2
20210918110020 52 245 0.0 0.0 0.00 0.00 0.00 67 1026.2
20210918105523 51 245 0.0 0.0 0.00 0.00 0.00 67 1026.2
20210918105014 51 245 0.0 0.0 0.00 0.00 0.00 67 1026.2
20210918104518 51 245 0.0 0.0 0.00 0.00 0.00 67 1026.4
20210918104011 51 229 0.0 0.0 0.00 0.00 0.00 68 1026.4
20210918103511 51 229 0.0 0.0 0.00 0.00 0.00 68 1026.5
20210918103011 51 229 0.0 0.0 0.00 0.00 0.00 68 1026.5
20210918102510 51 229 0.0 0.0 0.00 0.00 0.00 67 1026.6
20210918102007 52 229 0.0 0.0 0.00 0.00 0.00 66 1026.6
20210918101506 52 229 0.0 0.0 0.00 0.00 0.00 66 1026.6
20210918101007 52 229 0.0 0.0 0.00 0.00 0.00 66 1026.7
20210918100507 52 229 0.0 0.0 0.00 0.00 0.00 65 1026.7
20210918100003 52 229 0.0 0.0 0.00 0.00 0.00 65 1026.7
20210918095503 52 229 0.0 0.0 0.00 0.00 0.00 66 1026.7
20210918094959 52 229 0.0 0.0 0.00 0.00 0.00 65 1026.8
20210918094459 53 229 0.0 0.0 0.00 0.00 0.00 64 1026.8
20210918094000 53 229 0.0 0.0 0.00 0.00 0.00 64 1026.8
20210918093501 53 229 0.0 0.0 0.00 0.00 0.00 63 1026.8
20210918092958 53 252 0.0 0.0 0.00 0.00 0.00 63 1026.8
20210918092459 53 256 0.0 0.0 0.00 0.00 0.00 63 1026.8
20210918091955 53 262 0.0 0.0 0.00 0.00 0.00 62 1027.0
20210918091457 53 262 0.0 0.0 0.00 0.00 0.00 62 1026.8
20210918090957 54 263 0.0 0.0 0.00 0.00 0.00 61 1027.0
20210918090454 54 262 0.0 0.0 0.00 0.00 0.00 61 1027.0
20210918085955 54 262 0.0 0.0 0.00 0.00 0.00 60 1027.1
20210918085453 54 262 0.0 0.0 0.00 0.00 0.00 61 1027.2
20210918084952 53 262 0.0 0.0 0.00 0.00 0.00 61 1027.2
20210918084451 53 263 0.0 0.0 0.00 0.00 0.00 61 1027.3
20210918083952 53 212 0.0 0.0 0.00 0.00 0.00 61 1027.3
20210918083454 54 212 0.0 0.0 0.00 0.00 0.00 61 1027.5
20210918082952 53 212 0.0 0.0 0.00 0.00 0.00 62 1027.5
20210918082452 53 212 0.0 0.0 0.00 0.00 0.00 63 1027.3
20210918081953 53 212 0.0 0.0 0.00 0.00 0.00 63 1027.3
20210918081452 53 254 0.0 0.0 0.00 0.00 0.00 62 1027.3
20210918080951 54 255 0.0 0.0 0.00 0.00 0.00 61 1027.2
20210918080453 55 255 0.0 0.0 0.00 0.00 0.00 60 1027.3
20210918075952 56 255 0.0 0.0 0.00 0.00 0.00 59 1027.3
20210918075451 56 255 0.0 0.0 0.00 0.00 0.00 58 1027.5
20210918074953 57 261 0.0 0.0 0.00 0.00 0.00 55 1027.6
20210918074452 57 271 0.0 0.0 0.00 0.00 0.00 54 1027.5
20210918073953 56 274 0.0 0.0 0.00 0.00 0.00 54 1027.6
20210918073452 56 270 0.0 0.0 0.00 0.00 0.00 54 1027.7
20210918072954 56 277 0.0 0.0 0.00 0.00 0.00 55 1027.6
20210918072451 57 271 0.0 0.0 0.00 0.00 0.00 54 1027.6
20210918071954 57 270 0.0 1.0 0.00 0.00 0.00 54 1027.6
20210918071451 57 271 0.0 1.0 0.00 0.00 0.00 55 1027.5
20210918070952 57 269 0.0 1.0 0.00 0.00 0.00 54 1027.5
20210918070451 57 273 0.0 1.0 0.00 0.00 0.00 55 1027.3
20210918065951 57 274 0.0 0.0 0.00 0.00 0.00 56 1027.5
20210918065452 57 271 0.0 0.0 0.00 0.00 0.00 56 1027.5
20210918064952 57 271 0.0 0.0 0.00 0.00 0.00 56 1027.5
20210918064452 57 271 0.0 1.0 0.00 0.00 0.00 57 1027.6
20210918063952 56 271 0.0 2.0 0.00 0.00 0.00 58 1027.5
20210918063451 56 279 0.0 2.0 0.00 0.00 0.00 58 1027.6
20210918062953 56 271 0.0 2.0 0.00 0.00 0.00 58 1027.6
20210918062451 56 269 0.0 2.0 0.00 0.00 0.00 59 1027.7
20210918061952 56 269 1.0 2.0 0.00 0.00 0.00 59 1027.7
20210918061452 56 284 1.0 2.0 0.00 0.00 0.00 59 1027.6
20210918060953 56 285 0.0 2.0 0.00 0.00 0.00 59 1027.6
20210918060451 56 274 0.0 1.0 0.00 0.00 0.00 58 1027.6
20210918055951 56 273 0.0 3.0 0.00 0.00 0.00 58 1027.6
20210918055451 56 270 1.0 3.0 0.00 0.00 0.00 59 1027.6
20210918054951 56 271 0.0 2.0 0.00 0.00 0.00 59 1027.5
20210918054450 56 297 0.0 2.0 0.00 0.00 0.00 59 1027.5
20210918053949 56 284 0.0 2.0 0.00 0.00 0.00 60 1027.5
20210918053449 56 292 1.0 2.0 0.00 0.00 0.00 60 1027.5
20210918052949 56 285 1.0 3.0 0.00 0.00 0.00 60 1027.5
20210918052451 55 256 1.0 3.0 0.00 0.00 0.00 61 1027.3
20210918051950 55 264 1.0 4.0 0.00 0.00 0.00 61 1027.3
20210918051451 55 272 1.0 4.0 0.00 0.00 0.00 61 1027.3
20210918050949 55 278 1.0 3.0 0.00 0.00 0.00 61 1027.2
20210918050450 55 295 1.0 2.0 0.00 0.00 0.00 61 1027.3
20210918045947 56 280 1.0 2.0 0.00 0.00 0.00 61 1027.3
20210918045446 56 293 1.0 2.0 0.00 0.00 0.00 61 1027.5
20210918044947 56 274 0.0 2.0 0.00 0.00 0.00 61 1027.5
20210918044446 55 299 0.0 3.0 0.00 0.00 0.00 61 1027.5
20210918043946 55 295 1.0 3.0 0.00 0.00 0.00 62 1027.5